Time;durP1;ratioP1;P1;durP2;ratioP2;P2;SDS_P1;SDS_P2;PMS_P1;PMS_P2;Temp;Humidity;BMP_temperature;BMP_pressure;BME280_temperature;BME280_humidity;BME280_pressure;Samples;Min_cycle;Max_cycle;Signal;HPM_P1;HPM_P2
2022/09/08 00:02:21;;;;;;;3.83;3.07;;;;;;;;;;5007922;28;20214;-75
2022/09/08 00:04:47;;;;;;;3.47;3.17;;;;;;;;;;5011727;28;20213;-76
2022/09/08 00:07:12;;;;;;;3.43;3.13;;;;;;;;;;5008401;28;20222;-76
2022/09/08 00:09:38;;;;;;;3.17;2.87;;;;;;;;;;5014139;28;20204;-75
2022/09/08 00:12:03;;;;;;;3.13;2.83;;;;;;;;;;5015313;28;20198;-76
2022/09/08 00:14:29;;;;;;;5.03;3.30;;;;;;;;;;5017215;28;20190;-75
2022/09/08 00:16:55;;;;;;;3.57;3.23;;;;;;;;;;5017454;28;20206;-75
2022/09/08 00:19:20;;;;;;;4.40;3.40;;;;;;;;;;5014179;28;20213;-75
2022/09/08 00:21:45;;;;;;;4.63;2.87;;;;;;;;;;5012576;28;20170;-75
2022/09/08 00:24:10;;;;;;;4.80;2.93;;;;;;;;;;5024731;28;20183;-76
2022/09/08 00:26:36;;;;;;;4.00;3.43;;;;;;;;;;5013822;28;20239;-75
2022/09/08 00:29:01;;;;;;;3.73;3.13;;;;;;;;;;5013059;28;20221;-75
2022/09/08 00:31:26;;;;;;;4.47;3.23;;;;;;;;;;5019367;28;20237;-75
2022/09/08 00:33:51;;;;;;;4.40;2.80;;;;;;;;;;5031180;28;20262;-75
2022/09/08 00:36:17;;;;;;;4.53;3.27;;;;;;;;;;5032210;28;20216;-75
2022/09/08 00:38:43;;;;;;;4.10;3.50;;;;;;;;;;5026913;28;20181;-75
2022/09/08 00:41:12;;;;;;;4.80;3.53;;;;;;;;;;5029889;28;20187;-75
2022/09/08 00:43:43;;;;;;;3.87;3.57;;;;;;;;;;5033491;28;20182;-75
2022/09/08 00:46:09;;;;;;;6.07;3.40;;;;;;;;;;5030241;28;20447;-75
2022/09/08 00:48:55;;;;;;;4.10;3.70;;;;;;;;;;5033288;28;20489;-75
2022/09/08 00:51:22;;;;;;;3.57;3.27;;;;;;;;;;5030165;28;20191;-75
2022/09/08 00:53:47;;;;;;;3.67;3.33;;;;;;;;;;5039706;28;20189;-75
2022/09/08 00:56:13;;;;;;;4.27;3.40;;;;;;;;;;5030054;28;20213;-76
2022/09/08 00:58:39;;;;;;;4.60;3.57;;;;;;;;;;5033361;28;20183;-75
2022/09/08 01:01:05;;;;;;;4.43;3.50;;;;;;;;;;5028042;28;20188;-75
2022/09/08 01:03:31;;;;;;;4.50;4.10;;;;;;;;;;5034321;28;20174;-76
2022/09/08 01:06:09;;;;;;;4.33;2.83;;;;;;;;;;5030394;28;20209;-75
2022/09/08 01:14:09;;;;;;;4.20;3.73;;;;;;;;;;5029606;28;20201;-75
2022/09/08 01:16:35;;;;;;;3.67;3.37;;;;;;;;;;5030961;28;20197;-75
2022/09/08 01:19:00;;;;;;;7.20;4.27;;;;;;;;;;5031862;28;20267;-75
2022/09/08 01:21:29;;;;;;;4.33;3.80;;;;;;;;;;5032195;28;20178;-75
2022/09/08 01:24:09;;;;;;;6.17;4.70;;;;;;;;;;5030715;28;20180;-76
2022/09/08 01:26:53;;;;;;;5.43;4.63;;;;;;;;;;5028177;28;20181;-75
2022/09/08 01:29:19;;;;;;;5.37;4.87;;;;;;;;;;5027873;28;20190;-75
2022/09/08 01:31:47;;;;;;;7.20;5.37;;;;;;;;;;5044115;28;20229;-76
2022/09/08 01:34:12;;;;;;;5.37;4.83;;;;;;;;;;5022912;28;20215;-75
2022/09/08 01:36:37;;;;;;;5.87;5.27;;;;;;;;;;5030492;28;20470;-75
2022/09/08 01:39:03;;;;;;;5.87;5.37;;;;;;;;;;5026757;28;20182;-75
2022/09/08 01:41:28;;;;;;;5.97;5.43;;;;;;;;;;5031346;28;20176;-75
2022/09/08 01:43:53;;;;;;;7.70;6.30;;;;;;;;;;5025209;28;20177;-76
2022/09/08 01:46:18;;;;;;;6.63;5.93;;;;;;;;;;5029818;28;20177;-75
2022/09/08 01:48:44;;;;;;;10.43;6.53;;;;;;;;;;5023544;28;20230;-76
2022/09/08 01:51:10;;;;;;;6.20;5.70;;;;;;;;;;5029533;28;20193;-76
2022/09/08 01:53:35;;;;;;;9.70;6.40;;;;;;;;;;5033644;28;20241;-75
2022/09/08 01:56:01;;;;;;;7.10;6.20;;;;;;;;;;5032542;28;20198;-75
2022/09/08 01:58:26;;;;;;;7.20;5.97;;;;;;;;;;5031992;28;20186;-75
2022/09/08 02:00:52;;;;;;;6.40;5.53;;;;;;;;;;5029224;28;20202;-75
2022/09/08 02:03:17;;;;;;;9.57;5.83;;;;;;;;;;5027586;28;20185;-75
2022/09/08 02:05:43;;;;;;;7.07;5.30;;;;;;;;;;5031411;28;20231;-75
2022/09/08 02:08:09;;;;;;;7.90;5.97;;;;;;;;;;5028580;28;20193;-75
2022/09/08 02:10:34;;;;;;;5.93;5.43;;;;;;;;;;5027529;28;20184;-75
2022/09/08 02:13:00;;;;;;;6.23;5.60;;;;;;;;;;5027620;28;20188;-76
2022/09/08 02:15:25;;;;;;;5.73;4.90;;;;;;;;;;5024829;28;20229;-75
2022/09/08 02:17:50;;;;;;;5.47;4.60;;;;;;;;;;5031931;28;20482;-75
2022/09/08 02:20:16;;;;;;;6.30;5.33;;;;;;;;;;5026348;28;20185;-75
2022/09/08 02:22:42;;;;;;;6.00;5.17;;;;;;;;;;5026874;28;20173;-75
2022/09/08 02:25:07;;;;;;;5.57;4.90;;;;;;;;;;5029460;28;20180;-75
2022/09/08 02:27:32;;;;;;;4.73;4.33;;;;;;;;;;5031033;28;20316;-75
2022/09/08 02:29:58;;;;;;;5.30;4.80;;;;;;;;;;5029157;28;20266;-75
2022/09/08 02:32:23;;;;;;;5.27;4.77;;;;;;;;;;5032547;28;20240;-75
2022/09/08 02:34:48;;;;;;;5.17;4.67;;;;;;;;;;5039965;28;20332;-75
2022/09/08 02:37:13;;;;;;;4.77;4.37;;;;;;;;;;5032901;28;20199;-75
2022/09/08 02:39:38;;;;;;;5.27;4.77;;;;;;;;;;5035330;28;20184;-75
2022/09/08 02:42:04;;;;;;;4.90;4.40;;;;;;;;;;5024132;28;20251;-75
2022/09/08 02:44:29;;;;;;;5.23;4.80;;;;;;;;;;5031607;28;20174;-75
2022/09/08 02:46:54;;;;;;;5.00;4.10;;;;;;;;;;5027875;28;20177;-75
2022/09/08 02:49:20;;;;;;;5.60;5.10;;;;;;;;;;5028116;28;20175;-75
2022/09/08 02:51:46;;;;;;;6.87;4.77;;;;;;;;;;5029999;28;20217;-75
2022/09/08 02:54:11;;;;;;;4.30;4.00;;;;;;;;;;5030947;28;20213;-75
2022/09/08 02:56:36;;;;;;;4.60;4.20;;;;;;;;;;5028612;28;20524;-75
2022/09/08 02:59:02;;;;;;;4.73;4.37;;;;;;;;;;5029859;28;20258;-75
2022/09/08 03:01:27;;;;;;;5.17;3.87;;;;;;;;;;5026009;28;20180;-75
2022/09/08 03:03:52;;;;;;;4.33;3.93;;;;;;;;;;5029716;28;20211;-75
2022/09/08 03:06:18;;;;;;;4.23;3.63;;;;;;;;;;5028212;28;20180;-74
2022/09/08 03:08:43;;;;;;;4.00;2.93;;;;;;;;;;5028151;28;20184;-74
2022/09/08 03:11:09;;;;;;;3.53;3.10;;;;;;;;;;5029546;28;20189;-74
2022/09/08 03:13:35;;;;;;;4.60;3.10;;;;;;;;;;5025113;28;20226;-75
2022/09/08 03:16:01;;;;;;;2.63;2.40;;;;;;;;;;5026984;28;20328;-74
2022/09/08 03:18:26;;;;;;;2.93;2.50;;;;;;;;;;5037105;28;20540;-74
2022/09/08 03:20:59;;;;;;;2.77;2.30;;;;;;;;;;5034400;28;20182;-74
2022/09/08 03:23:25;;;;;;;3.60;2.40;;;;;;;;;;5024390;28;20183;-74
2022/09/08 03:25:50;;;;;;;2.43;2.07;;;;;;;;;;5029296;28;20257;-75
2022/09/08 03:28:20;;;;;;;3.17;2.30;;;;;;;;;;5029094;28;20187;-74
2022/09/08 03:30:46;;;;;;;3.40;2.57;;;;;;;;;;5034883;28;20186;-74
2022/09/08 03:33:11;;;;;;;3.37;2.20;;;;;;;;;;5050878;28;20180;-74
2022/09/08 03:35:36;;;;;;;3.40;2.40;;;;;;;;;;5048320;28;20202;-74
2022/09/08 03:38:01;;;;;;;5.37;2.13;;;;;;;;;;5034034;28;20210;-74
2022/09/08 03:40:27;;;;;;;2.47;2.20;;;;;;;;;;5047279;28;20225;-74
2022/09/08 03:42:52;;;;;;;2.57;2.10;;;;;;;;;;5043783;28;20178;-74
2022/09/08 03:45:18;;;;;;;1.97;1.87;;;;;;;;;;5036369;28;20189;-74
2022/09/08 03:47:44;;;;;;;2.13;1.97;;;;;;;;;;5041073;28;20181;-75
2022/09/08 03:50:10;;;;;;;1.97;1.87;;;;;;;;;;5039144;28;20185;-75
2022/09/08 03:52:35;;;;;;;2.97;1.73;;;;;;;;;;5055613;28;20472;-75
2022/09/08 03:55:00;;;;;;;3.07;1.83;;;;;;;;;;5051307;28;20173;-74
2022/09/08 03:57:26;;;;;;;1.73;1.63;;;;;;;;;;5062658;28;20210;-75
2022/09/08 03:59:52;;;;;;;2.70;1.97;;;;;;;;;;5053756;28;20614;-74
2022/09/08 04:02:18;;;;;;;1.70;1.60;;;;;;;;;;5050265;28;20196;-74
2022/09/08 04:04:47;;;;;;;1.90;1.60;;;;;;;;;;5052743;28;20175;-74
2022/09/08 04:07:12;;;;;;;2.00;1.80;;;;;;;;;;5034933;28;20227;-74
2022/09/08 04:09:37;;;;;;;2.23;2.03;;;;;;;;;;5036525;28;20249;-74
2022/09/08 04:12:03;;;;;;;1.70;1.60;;;;;;;;;;5033633;28;20187;-74
2022/09/08 04:14:28;;;;;;;1.70;1.60;;;;;;;;;;5051439;28;20185;-74
2022/09/08 04:16:54;;;;;;;1.40;1.30;;;;;;;;;;5052655;28;20198;-74
2022/09/08 04:19:19;;;;;;;1.53;1.43;;;;;;;;;;5047466;28;20181;-74
2022/09/08 04:21:44;;;;;;;1.27;0.97;;;;;;;;;;5035797;28;20185;-74
2022/09/08 04:24:10;;;;;;;1.17;0.80;;;;;;;;;;5051918;28;20188;-74
2022/09/08 04:26:35;;;;;;;1.00;1.00;;;;;;;;;;5056770;28;20191;-74
2022/09/08 04:29:01;;;;;;;0.93;0.93;;;;;;;;;;5033951;28;20181;-74
2022/09/08 04:31:26;;;;;;;0.80;0.80;;;;;;;;;;5064892;28;20240;-74
2022/09/08 04:33:51;;;;;;;0.80;0.80;;;;;;;;;;5034628;28;20208;-74
2022/09/08 04:36:18;;;;;;;0.90;0.90;;;;;;;;;;5032640;28;20209;-75
2022/09/08 04:38:43;;;;;;;1.30;0.77;;;;;;;;;;5049105;28;20196;-74
2022/09/08 04:41:10;;;;;;;0.97;0.90;;;;;;;;;;5035523;28;20178;-74
2022/09/08 04:43:35;;;;;;;0.67;0.67;;;;;;;;;;5052898;28;20236;-74
2022/09/08 04:46:09;;;;;;;0.80;0.80;;;;;;;;;;5037355;28;20262;-74
2022/09/08 04:48:35;;;;;;;0.83;0.83;;;;;;;;;;5049792;28;20239;-74
2022/09/08 04:51:00;;;;;;;0.80;0.80;;;;;;;;;;5038557;28;20187;-74
2022/09/08 04:53:26;;;;;;;2.33;1.27;;;;;;;;;;5040207;28;20186;-74
2022/09/08 04:55:51;;;;;;;0.73;0.73;;;;;;;;;;5052936;28;20252;-74
2022/09/08 04:58:17;;;;;;;0.70;0.70;;;;;;;;;;5031270;28;20433;-74
2022/09/08 05:00:43;;;;;;;3.27;2.27;;;;;;;;;;5049550;28;20178;-74
2022/09/08 05:03:08;;;;;;;7.13;4.07;;;;;;;;;;5052865;28;20209;-74
2022/09/08 05:05:37;;;;;;;2.43;1.60;;;;;;;;;;5035155;28;20202;-74
2022/09/08 05:08:02;;;;;;;1.60;1.50;;;;;;;;;;5031256;28;20226;-74
2022/09/08 05:10:27;;;;;;;3.00;2.07;;;;;;;;;;5050271;28;20207;-74
2022/09/08 05:12:56;;;;;;;8.37;5.43;;;;;;;;;;5032841;28;20286;-74
2022/09/08 05:15:22;;;;;;;3.00;2.50;;;;;;;;;;5052032;28;20179;-74
2022/09/08 05:17:48;;;;;;;1.50;1.40;;;;;;;;;;5056767;28;20191;-74
2022/09/08 05:20:13;;;;;;;2.77;2.40;;;;;;;;;;5052426;28;20189;-74
2022/09/08 05:22:38;;;;;;;2.20;1.80;;;;;;;;;;5043885;28;20180;-74
2022/09/08 05:25:04;;;;;;;1.00;1.00;;;;;;;;;;5033134;28;20190;-74
2022/09/08 05:27:29;;;;;;;1.00;1.00;;;;;;;;;;5033566;28;20189;-74
2022/09/08 05:29:55;;;;;;;1.43;0.60;;;;;;;;;;5037774;28;20174;-74
2022/09/08 05:32:20;;;;;;;0.77;0.77;;;;;;;;;;5027340;28;20264;-74
2022/09/08 05:34:45;;;;;;;1.70;1.10;;;;;;;;;;5013555;28;20231;-75
2022/09/08 05:37:10;;;;;;;1.43;0.93;;;;;;;;;;5012727;28;20204;-74
2022/09/08 05:39:36;;;;;;;0.57;0.57;;;;;;;;;;5020357;28;20208;-74
2022/09/08 05:42:01;;;;;;;1.03;0.90;;;;;;;;;;5011861;28;20187;-74
2022/09/08 05:44:26;;;;;;;0.33;0.33;;;;;;;;;;5014567;28;20226;-75
2022/09/08 05:46:51;;;;;;;0.80;0.80;;;;;;;;;;5025099;28;20184;-74
2022/09/08 05:49:17;;;;;;;1.10;1.00;;;;;;;;;;5014252;28;20183;-75
2022/09/08 05:51:42;;;;;;;1.80;0.50;;;;;;;;;;5012606;28;20185;-75
2022/09/08 05:54:07;;;;;;;0.97;0.80;;;;;;;;;;5033911;28;20266;-76
2022/09/08 05:56:32;;;;;;;0.60;0.60;;;;;;;;;;5030434;28;20214;-77
2022/09/08 05:58:58;;;;;;;0.93;0.90;;;;;;;;;;5015179;28;20225;-76
2022/09/08 06:01:24;;;;;;;0.80;0.60;;;;;;;;;;5011609;28;20183;-76
2022/09/08 06:03:50;;;;;;;0.90;0.90;;;;;;;;;;5014842;28;20179;-76
2022/09/08 06:06:16;;;;;;;0.77;0.77;;;;;;;;;;5011404;28;20224;-77
2022/09/08 06:08:44;;;;;;;0.70;0.70;;;;;;;;;;5040639;28;20212;-76
2022/09/08 06:11:10;;;;;;;0.90;0.83;;;;;;;;;;5024162;28;20257;-76
2022/09/08 06:13:36;;;;;;;1.00;0.90;;;;;;;;;;5024371;28;20179;-76
2022/09/08 06:16:05;;;;;;;0.90;0.90;;;;;;;;;;5015247;28;20218;-76
2022/09/08 06:18:35;;;;;;;0.80;0.50;;;;;;;;;;5028159;28;20179;-76
2022/09/08 06:21:20;;;;;;;0.73;0.60;;;;;;;;;;5020186;28;20180;-76
2022/09/08 06:23:49;;;;;;;0.90;0.90;;;;;;;;;;5013664;28;20336;-76
2022/09/08 06:26:14;;;;;;;0.93;0.80;;;;;;;;;;5032414;28;20185;-76
2022/09/08 06:28:41;;;;;;;1.00;0.97;;;;;;;;;;5030041;28;20271;-76
2022/09/08 06:31:07;;;;;;;0.80;0.80;;;;;;;;;;5030364;28;20273;-76
2022/09/08 06:33:39;;;;;;;2.10;0.90;;;;;;;;;;5009371;28;20202;-76
2022/09/08 06:36:13;;;;;;;2.63;2.47;;;;;;;;;;5030154;28;20211;-76
2022/09/08 06:38:45;;;;;;;0.70;0.70;;;;;;;;;;5015768;28;20238;-76
2022/09/08 06:41:12;;;;;;;2.90;1.07;;;;;;;;;;5018374;28;20182;-76
2022/09/08 06:43:37;;;;;;;0.80;0.80;;;;;;;;;;5010553;28;20181;-76
2022/09/08 06:46:11;;;;;;;1.00;1.00;;;;;;;;;;5020873;28;20190;-76
2022/09/08 06:48:40;;;;;;;1.00;0.90;;;;;;;;;;5034235;28;20214;-76
2022/09/08 06:51:08;;;;;;;1.50;0.90;;;;;;;;;;5037549;28;20201;-76
2022/09/08 06:53:36;;;;;;;0.80;0.80;;;;;;;;;;5024879;28;20176;-76
2022/09/08 06:56:09;;;;;;;0.90;0.90;;;;;;;;;;5038324;28;20246;-76
2022/09/08 06:58:36;;;;;;;0.80;0.80;;;;;;;;;;5011622;28;20170;-76
2022/09/08 07:01:21;;;;;;;1.00;0.90;;;;;;;;;;5025989;28;20179;-76
2022/09/08 07:04:05;;;;;;;1.20;1.13;;;;;;;;;;5022220;28;20232;-76
2022/09/08 07:06:38;;;;;;;1.10;0.90;;;;;;;;;;5014423;28;20183;-76
2022/09/08 07:09:39;;;;;;;1.17;0.90;;;;;;;;;;5033232;28;20183;-76
2022/09/08 07:12:04;;;;;;;0.70;0.70;;;;;;;;;;4982222;28;20186;-76
2022/09/08 07:14:54;;;;;;;1.13;0.90;;;;;;;;;;4973485;28;20186;-76
2022/09/08 07:17:31;;;;;;;0.80;0.80;;;;;;;;;;4992916;28;20272;-76
2022/09/08 07:19:56;;;;;;;0.90;0.90;;;;;;;;;;4975551;28;20276;-76
2022/09/08 07:22:40;;;;;;;1.30;1.20;;;;;;;;;;4987652;28;20187;-76
2022/09/08 07:25:15;;;;;;;1.17;1.07;;;;;;;;;;4979303;28;20188;-76
2022/09/08 07:27:41;;;;;;;1.27;1.00;;;;;;;;;;4988159;28;20255;-76
2022/09/08 07:30:12;;;;;;;1.27;1.07;;;;;;;;;;4980881;28;20212;-76
2022/09/08 07:32:37;;;;;;;1.47;1.37;;;;;;;;;;4964149;28;20307;-75
2022/09/08 07:35:08;;;;;;;2.97;1.30;;;;;;;;;;4962323;28;20844;-76
2022/09/08 07:37:36;;;;;;;1.00;0.90;;;;;;;;;;4984055;28;20209;-76
2022/09/08 07:40:05;;;;;;;1.40;1.30;;;;;;;;;;4985701;28;20197;-76
2022/09/08 07:42:30;;;;;;;0.83;0.83;;;;;;;;;;4969162;28;20189;-76
2022/09/08 07:45:00;;;;;;;0.83;0.83;;;;;;;;;;4971047;28;20176;-76
2022/09/08 07:47:40;;;;;;;1.73;1.20;;;;;;;;;;5026805;28;20183;-76
2022/09/08 07:50:05;;;;;;;1.10;1.10;;;;;;;;;;5027956;28;20190;-75
2022/09/08 07:52:33;;;;;;;1.17;1.07;;;;;;;;;;5009340;28;20185;-76
2022/09/08 07:54:59;;;;;;;1.30;1.10;;;;;;;;;;5009737;28;20250;-75
2022/09/08 07:57:31;;;;;;;1.13;1.03;;;;;;;;;;5012238;28;20208;-75
2022/09/08 07:59:56;;;;;;;1.67;1.37;;;;;;;;;;5011647;28;20184;-75
2022/09/08 08:02:41;;;;;;;1.60;1.07;;;;;;;;;;5028497;28;20172;-75
2022/09/08 08:05:20;;;;;;;1.90;1.10;;;;;;;;;;5030089;28;20188;-75
2022/09/08 08:07:55;;;;;;;0.80;0.80;;;;;;;;;;5020376;28;20183;-75
2022/09/08 08:10:27;;;;;;;0.93;0.93;;;;;;;;;;5001653;28;20308;-75
2022/09/08 08:13:11;;;;;;;1.30;1.10;;;;;;;;;;5012766;28;20179;-75
2022/09/08 08:15:36;;;;;;;2.10;1.10;;;;;;;;;;5024662;28;20185;-75
2022/09/08 08:18:05;;;;;;;0.90;0.90;;;;;;;;;;5010655;28;20322;-75
2022/09/08 08:20:39;;;;;;;0.90;0.90;;;;;;;;;;5012505;28;20190;-75
2022/09/08 08:23:05;;;;;;;0.87;0.67;;;;;;;;;;5026819;28;20173;-75
2022/09/08 08:25:46;;;;;;;1.00;1.00;;;;;;;;;;5007490;28;20239;-74
2022/09/08 08:28:14;;;;;;;1.20;1.10;;;;;;;;;;5026088;28;20178;-74
2022/09/08 08:30:54;;;;;;;1.37;1.20;;;;;;;;;;5041006;28;20179;-74
2022/09/08 08:33:22;;;;;;;0.90;0.90;;;;;;;;;;5009540;28;20181;-74
2022/09/08 08:35:49;;;;;;;2.60;1.00;;;;;;;;;;5027602;28;20275;-74
2022/09/08 08:38:19;;;;;;;1.20;0.87;;;;;;;;;;5015663;28;20174;-74
2022/09/08 08:40:48;;;;;;;1.00;1.00;;;;;;;;;;5028948;28;20176;-74
2022/09/08 08:43:22;;;;;;;2.00;1.00;;;;;;;;;;5036593;28;20194;-74
2022/09/08 08:45:50;;;;;;;0.90;0.90;;;;;;;;;;5024426;28;20185;-74
2022/09/08 08:48:18;;;;;;;2.13;1.17;;;;;;;;;;5033581;28;20182;-74
2022/09/08 08:50:44;;;;;;;0.93;0.93;;;;;;;;;;5031844;28;20187;-75
2022/09/08 08:53:27;;;;;;;1.77;1.00;;;;;;;;;;5010661;28;20193;-75
2022/09/08 08:56:08;;;;;;;1.07;0.97;;;;;;;;;;5011279;28;20562;-74
2022/09/08 08:58:33;;;;;;;2.70;1.27;;;;;;;;;;5031851;28;20170;-75
2022/09/08 09:01:07;;;;;;;1.33;1.10;;;;;;;;;;5034515;28;20193;-75
2022/09/08 09:03:51;;;;;;;1.40;1.30;;;;;;;;;;5015969;28;20260;-74
2022/09/08 09:06:29;;;;;;;1.17;1.00;;;;;;;;;;5016141;28;20188;-75
2022/09/08 09:09:13;;;;;;;1.40;1.20;;;;;;;;;;5023433;28;20272;-75
2022/09/08 09:11:49;;;;;;;1.37;1.27;;;;;;;;;;5031216;28;20184;-75
2022/09/08 09:14:31;;;;;;;1.53;1.07;;;;;;;;;;5019544;28;20189;-74
2022/09/08 09:17:11;;;;;;;5.50;1.00;;;;;;;;;;5014035;28;20270;-75
2022/09/08 09:19:36;;;;;;;1.23;1.13;;;;;;;;;;5032767;28;20245;-75
2022/09/08 09:22:20;;;;;;;1.55;1.05;;;;;;;;;;5032239;28;20186;-74
2022/09/08 09:24:51;;;;;;;1.67;1.10;;;;;;;;;;5010653;28;20182;-75
2022/09/08 09:27:35;;;;;;;2.73;1.20;;;;;;;;;;5011209;28;20188;-74
2022/09/08 09:30:12;;;;;;;1.07;0.97;;;;;;;;;;5011735;28;20248;-75
2022/09/08 09:32:47;;;;;;;1.00;1.00;;;;;;;;;;5025170;28;20234;-75
2022/09/08 09:35:30;;;;;;;3.33;1.20;;;;;;;;;;5035754;28;20205;-75
2022/09/08 09:38:11;;;;;;;7.50;1.37;;;;;;;;;;5019145;28;20187;-75
2022/09/08 09:40:48;;;;;;;1.27;1.17;;;;;;;;;;5032508;28;20255;-75
2022/09/08 09:43:25;;;;;;;2.37;1.23;;;;;;;;;;5010802;28;20175;-75
2022/09/08 09:45:57;;;;;;;1.63;1.43;;;;;;;;;;5030136;28;20178;-75
2022/09/08 09:48:40;;;;;;;1.20;1.10;;;;;;;;;;5035435;28;20201;-75
2022/09/08 09:51:09;;;;;;;1.20;1.10;;;;;;;;;;5017344;28;20217;-75
2022/09/08 09:53:52;;;;;;;1.60;1.40;;;;;;;;;;5025396;28;20183;-75
2022/09/08 09:56:36;;;;;;;2.30;1.10;;;;;;;;;;5017369;28;20277;-75
2022/09/08 09:59:20;;;;;;;2.20;1.30;;;;;;;;;;5015826;28;20181;-75
2022/09/08 10:01:57;;;;;;;1.20;1.10;;;;;;;;;;5026713;28;20181;-75
2022/09/08 10:04:41;;;;;;;1.63;0.93;;;;;;;;;;5034818;28;20189;-75
2022/09/08 10:07:06;;;;;;;1.67;1.03;;;;;;;;;;5011249;28;20194;-75
2022/09/08 10:09:35;;;;;;;2.60;1.13;;;;;;;;;;5027685;28;20185;-75
2022/09/08 10:12:01;;;;;;;1.37;0.97;;;;;;;;;;5010844;28;20185;-76
2022/09/08 10:14:59;;;;;;;2.37;1.20;;;;;;;;;;5010301;28;20195;-76
2022/09/08 10:17:47;;;;;;;1.67;1.10;;;;;;;;;;5027460;28;20224;-76
2022/09/08 10:20:32;;;;;;;1.43;1.10;;;;;;;;;;5012548;28;20196;-76
2022/09/08 10:23:16;;;;;;;2.27;1.30;;;;;;;;;;5022927;28;20174;-76
2022/09/08 10:25:50;;;;;;;3.00;1.20;;;;;;;;;;5004122;28;20174;-75
2022/09/08 10:28:36;;;;;;;2.00;1.23;;;;;;;;;;5028628;28;20268;-76
2022/09/08 10:31:19;;;;;;;3.70;1.20;;;;;;;;;;5021101;28;20216;-76
2022/09/08 10:33:55;;;;;;;1.67;1.50;;;;;;;;;;5017620;28;20193;-75
2022/09/08 10:36:28;;;;;;;2.20;1.30;;;;;;;;;;5022210;28;20205;-76
2022/09/08 10:38:59;;;;;;;1.30;1.20;;;;;;;;;;5008161;28;20185;-76
2022/09/08 10:41:53;;;;;;;1.97;1.33;;;;;;;;;;5015254;28;20260;-76
2022/09/08 10:44:27;;;;;;;1.10;1.00;;;;;;;;;;5009264;28;20186;-76
2022/09/08 10:47:12;;;;;;;1.23;1.10;;;;;;;;;;5014609;28;20186;-76
2022/09/08 10:49:44;;;;;;;2.67;1.33;;;;;;;;;;5012706;28;20188;-76
2022/09/08 10:52:29;;;;;;;4.20;1.50;;;;;;;;;;5014102;28;20197;-76
2022/09/08 10:55:13;;;;;;;2.87;1.40;;;;;;;;;;5008458;28;20185;-76
2022/09/08 10:57:53;;;;;;;4.87;1.47;;;;;;;;;;5015135;28;20205;-76
2022/09/08 11:00:19;;;;;;;3.33;1.10;;;;;;;;;;5015195;28;20189;-76
2022/09/08 11:02:57;;;;;;;1.80;1.10;;;;;;;;;;5039837;28;20177;-76
2022/09/08 11:05:25;;;;;;;1.63;1.13;;;;;;;;;;5031213;28;20208;-76
2022/09/08 11:07:51;;;;;;;3.77;1.40;;;;;;;;;;5008457;28;20181;-76
2022/09/08 11:10:28;;;;;;;1.60;1.20;;;;;;;;;;5033795;28;20185;-76
2022/09/08 11:13:02;;;;;;;2.60;1.10;;;;;;;;;;5012931;28;20181;-76
2022/09/08 11:15:31;;;;;;;1.97;1.30;;;;;;;;;;5017470;28;20552;-76
2022/09/08 11:18:16;;;;;;;2.20;1.33;;;;;;;;;;5021281;28;20236;-75
2022/09/08 11:21:11;;;;;;;2.60;0.90;;;;;;;;;;5007883;28;20293;-76
2022/09/08 11:23:50;;;;;;;0.87;0.83;;;;;;;;;;4931568;29;20183;-76
2022/09/08 11:26:18;;;;;;;1.93;1.40;;;;;;;;;;4930615;29;20344;-76
2022/09/08 11:28:50;;;;;;;1.37;1.03;;;;;;;;;;5007692;28;20198;-76
2022/09/08 11:31:40;;;;;;;2.40;1.30;;;;;;;;;;5012919;28;20265;-76
2022/09/08 11:34:16;;;;;;;3.37;1.40;;;;;;;;;;5005909;28;20209;-76
2022/09/08 11:37:00;;;;;;;2.87;1.20;;;;;;;;;;5014270;28;20330;-76
2022/09/08 11:39:28;;;;;;;2.77;1.43;;;;;;;;;;5034383;28;20261;-76
2022/09/08 11:42:12;;;;;;;1.47;0.93;;;;;;;;;;5030034;28;20172;-76
2022/09/08 11:44:37;;;;;;;2.70;1.20;;;;;;;;;;5009898;28;20183;-76
2022/09/08 11:47:22;;;;;;;1.90;1.27;;;;;;;;;;5013682;28;20272;-76
2022/09/08 11:50:04;;;;;;;1.50;1.03;;;;;;;;;;5008472;28;20186;-76
2022/09/08 11:52:38;;;;;;;2.57;1.40;;;;;;;;;;5013577;28;20182;-76
2022/09/08 11:55:06;;;;;;;3.43;1.63;;;;;;;;;;5007403;28;20188;-76
2022/09/08 11:57:31;;;;;;;1.63;1.10;;;;;;;;;;5036398;28;20214;-76
2022/09/08 12:00:15;;;;;;;5.77;1.30;;;;;;;;;;5014867;28;20181;-76
2022/09/08 12:02:40;;;;;;;1.87;1.17;;;;;;;;;;5029037;28;20221;-76
2022/09/08 12:05:23;;;;;;;4.70;1.63;;;;;;;;;;5019530;28;20225;-77
2022/09/08 12:08:00;;;;;;;3.33;1.50;;;;;;;;;;5011566;28;20182;-76
2022/09/08 12:10:34;;;;;;;3.87;1.20;;;;;;;;;;5042281;28;20281;-76
2022/09/08 12:12:59;;;;;;;2.13;1.27;;;;;;;;;;5014981;28;20230;-76
2022/09/08 12:15:34;;;;;;;1.93;1.23;;;;;;;;;;5015645;28;20181;-76
2022/09/08 12:18:04;;;;;;;1.90;1.47;;;;;;;;;;5017114;28;20258;-76
2022/09/08 12:20:49;;;;;;;1.23;1.10;;;;;;;;;;5016363;28;20220;-76
2022/09/08 12:23:20;;;;;;;1.43;1.13;;;;;;;;;;5017837;28;20237;-76
2022/09/08 12:26:04;;;;;;;3.23;1.60;;;;;;;;;;5034070;28;20181;-76
2022/09/08 12:28:37;;;;;;;2.00;1.20;;;;;;;;;;5016992;28;20175;-76
2022/09/08 12:31:06;;;;;;;3.90;1.83;;;;;;;;;;5012359;28;20214;-76
2022/09/08 12:33:51;;;;;;;4.07;1.30;;;;;;;;;;5030704;28;20169;-76
2022/09/08 12:36:53;;;;;;;3.77;1.30;;;;;;;;;;4985470;28;20216;-76
2022/09/08 12:39:54;;;;;;;1.80;1.10;;;;;;;;;;4971914;28;20268;-76
2022/09/08 12:42:32;;;;;;;2.33;1.40;;;;;;;;;;4972566;28;20184;-76
2022/09/08 12:45:00;;;;;;;3.53;1.10;;;;;;;;;;4955178;28;20241;-76
2022/09/08 12:47:34;;;;;;;1.40;1.00;;;;;;;;;;4962322;28;20200;-77
2022/09/08 12:50:18;;;;;;;3.17;1.47;;;;;;;;;;4958665;28;20174;-77
2022/09/08 12:52:52;;;;;;;2.77;1.30;;;;;;;;;;4966797;28;20187;-77
2022/09/08 12:55:24;;;;;;;2.53;0.97;;;;;;;;;;4962425;28;20227;-77
2022/09/08 12:57:57;;;;;;;2.60;1.50;;;;;;;;;;4960169;28;20231;-76
2022/09/08 13:00:29;;;;;;;2.60;1.23;;;;;;;;;;4955977;28;20193;-76
2022/09/08 13:03:04;;;;;;;1.73;1.00;;;;;;;;;;4971494;28;20291;-76
2022/09/08 13:05:37;;;;;;;1.83;1.00;;;;;;;;;;4957938;28;20194;-78
2022/09/08 13:08:21;;;;;;;2.57;1.17;;;;;;;;;;4979784;28;20196;-77
2022/09/08 13:10:48;;;;;;;2.97;1.37;;;;;;;;;;4973277;28;20178;-76
2022/09/08 13:13:34;;;;;;;2.53;1.30;;;;;;;;;;4980619;28;20247;-76
2022/09/08 13:16:08;;;;;;;1.57;1.00;;;;;;;;;;5047150;28;20215;-75
2022/09/08 13:18:43;;;;;;;2.43;1.43;;;;;;;;;;5026287;28;20169;-76
2022/09/08 13:21:20;;;;;;;2.30;1.00;;;;;;;;;;5033198;28;20212;-76
2022/09/08 13:24:01;;;;;;;2.47;1.50;;;;;;;;;;5012091;28;20206;-76
2022/09/08 13:26:32;;;;;;;2.53;1.30;;;;;;;;;;5036467;28;20336;-76
2022/09/08 13:29:13;;;;;;;2.20;1.40;;;;;;;;;;5013557;28;20201;-76
2022/09/08 13:31:49;;;;;;;3.30;1.30;;;;;;;;;;5013337;28;20324;-75
2022/09/08 13:34:26;;;;;;;4.23;1.47;;;;;;;;;;5035123;28;20232;-76
2022/09/08 13:37:24;;;;;;;1.73;1.13;;;;;;;;;;5010553;28;20222;-76
2022/09/08 13:39:52;;;;;;;1.90;1.20;;;;;;;;;;5017767;28;20498;-76
2022/09/08 13:42:35;;;;;;;2.37;1.20;;;;;;;;;;5033272;28;20323;-76
2022/09/08 13:45:16;;;;;;;4.07;1.60;;;;;;;;;;5011628;28;20177;-76
2022/09/08 13:48:04;;;;;;;1.30;0.90;;;;;;;;;;5019693;28;20177;-75
2022/09/08 13:50:48;;;;;;;3.20;1.20;;;;;;;;;;5012630;28;20186;-76
2022/09/08 13:53:25;;;;;;;2.90;1.27;;;;;;;;;;5038419;28;20188;-76
2022/09/08 13:56:09;;;;;;;4.53;1.50;;;;;;;;;;5034938;28;20213;-76
2022/09/08 13:58:40;;;;;;;2.50;1.40;;;;;;;;;;5032174;28;20173;-76
2022/09/08 14:01:27;;;;;;;1.47;1.13;;;;;;;;;;5018814;28;20273;-76
2022/09/08 14:03:59;;;;;;;1.47;0.90;;;;;;;;;;5010540;28;20259;-76
2022/09/08 14:06:35;;;;;;;2.97;1.30;;;;;;;;;;5036190;28;20189;-76
2022/09/08 14:09:07;;;;;;;3.23;1.13;;;;;;;;;;5011474;28;20187;-76
2022/09/08 14:11:35;;;;;;;3.33;1.83;;;;;;;;;;5030096;28;20252;-76
2022/09/08 14:14:20;;;;;;;1.73;1.13;;;;;;;;;;5014152;28;20209;-76
2022/09/08 14:16:46;;;;;;;1.23;1.10;;;;;;;;;;5007731;28;20211;-75
2022/09/08 14:19:21;;;;;;;2.63;1.40;;;;;;;;;;5011470;28;20204;-75
2022/09/08 14:21:55;;;;;;;4.13;1.10;;;;;;;;;;5032630;28;20186;-75
2022/09/08 14:24:39;;;;;;;2.80;1.17;;;;;;;;;;5031729;28;20275;-76
2022/09/08 14:27:21;;;;;;;1.17;0.90;;;;;;;;;;5039512;28;20284;-75
2022/09/08 14:29:59;;;;;;;2.50;1.40;;;;;;;;;;5017345;28;20177;-76
2022/09/08 14:32:27;;;;;;;3.67;1.40;;;;;;;;;;5028865;28;20305;-75
2022/09/08 14:35:12;;;;;;;3.70;1.37;;;;;;;;;;5022384;28;20236;-75
2022/09/08 14:37:49;;;;;;;3.40;1.20;;;;;;;;;;5010273;28;20214;-76
2022/09/08 14:40:23;;;;;;;1.40;1.30;;;;;;;;;;5014405;28;20172;-75
2022/09/08 14:43:08;;;;;;;2.73;1.33;;;;;;;;;;5014486;28;20180;-76
2022/09/08 14:45:49;;;;;;;1.60;1.20;;;;;;;;;;5006522;28;20184;-76
2022/09/08 14:48:19;;;;;;;2.13;1.40;;;;;;;;;;5028206;28;20194;-76
2022/09/08 14:51:10;;;;;;;1.73;1.13;;;;;;;;;;5026128;28;20222;-76
2022/09/08 14:53:35;;;;;;;2.50;1.43;;;;;;;;;;5009594;28;20212;-76
2022/09/08 14:56:06;;;;;;;2.60;1.67;;;;;;;;;;5026512;28;20199;-76
2022/09/08 14:58:40;;;;;;;3.10;1.50;;;;;;;;;;5031695;28;20175;-76
2022/09/08 15:01:24;;;;;;;1.57;1.20;;;;;;;;;;5037352;28;20181;-76
2022/09/08 15:03:52;;;;;;;2.20;1.20;;;;;;;;;;5011988;28;20308;-76
2022/09/08 15:06:53;;;;;;;2.33;1.20;;;;;;;;;;5028338;28;20179;-76
2022/09/08 15:09:29;;;;;;;1.87;1.17;;;;;;;;;;4962327;28;20217;-76
2022/09/08 15:11:54;;;;;;;2.33;1.10;;;;;;;;;;4968208;28;20195;-76
2022/09/08 15:14:29;;;;;;;3.00;1.50;;;;;;;;;;4971260;28;20215;-76
2022/09/08 15:16:56;;;;;;;2.03;1.10;;;;;;;;;;4988427;28;20237;-76